Time;durP1;ratioP1;P1;durP2;ratioP2;P2;SDS_P1;SDS_P2;PMS_P1;PMS_P2;Temp;Humidity;BMP_temperature;BMP_pressure;BME280_temperature;BME280_humidity;BME280_pressure;Samples;Min_cycle;Max_cycle;Signal;HPM_P1;HPM_P2
2023/01/20 00:02:01;;;;;;;8.35;2.55;;;;;;;-3.24;100.00;100430.34;4878064;29;20454;-94
2023/01/20 00:04:27;;;;;;;11.63;3.00;;;;;;;-2.71;100.00;100457.16;4909252;29;20036;-94
2023/01/20 00:06:53;;;;;;;9.60;3.40;;;;;;;-2.74;100.00;100434.44;4909128;29;20563;-95
2023/01/20 00:09:19;;;;;;;14.85;3.60;;;;;;;-2.64;100.00;100461.34;4877719;29;20036;-95
2023/01/20 00:11:45;;;;;;;6.68;2.67;;;;;;;-2.51;100.00;100451.19;4877767;29;20029;-96
2023/01/20 00:14:11;;;;;;;10.30;2.95;;;;;;;-2.54;100.00;100441.09;4877842;29;20127;-95
2023/01/20 00:16:37;;;;;;;7.53;2.90;;;;;;;-2.51;100.00;100446.13;4877808;29;20496;-94
2023/01/20 00:19:03;;;;;;;8.75;3.03;;;;;;;-2.45;100.00;100456.25;4877721;29;20142;-93
2023/01/20 00:21:28;;;;;;;6.88;2.92;;;;;;;-2.41;100.00;100465.50;4880250;29;20048;-94
2023/01/20 00:23:54;;;;;;;8.77;3.28;;;;;;;-2.31;100.00;100467.13;4881166;29;20116;-95
2023/01/20 00:26:22;;;;;;;12.15;3.17;;;;;;;-2.42;100.00;100433.47;4881389;29;20033;-94
2023/01/20 00:28:49;;;;;;;11.98;2.80;;;;;;;-2.21;100.00;100453.59;4881317;29;20029;-93
2023/01/20 00:31:19;;;;;;;14.85;2.60;;;;;;;-2.23;100.00;100457.00;4881294;29;20033;-94
2023/01/20 00:33:45;;;;;;;8.18;2.47;;;;;;;-2.34;100.00;100462.09;4912599;29;20040;-95
2023/01/20 00:36:12;;;;;;;8.73;2.53;;;;;;;-2.78;100.00;100416.75;4881342;29;20068;-94
2023/01/20 00:38:38;;;;;;;7.70;2.58;;;;;;;-2.89;100.00;100434.50;4881296;29;20361;-95
2023/01/20 00:41:05;;;;;;;4.18;2.45;;;;;;;-3.11;100.00;100416.84;4880846;29;20040;-94
2023/01/20 00:43:30;;;;;;;6.82;2.33;;;;;;;-3.16;100.00;100435.38;4881021;29;20424;-95
2023/01/20 00:45:56;;;;;;;5.63;2.00;;;;;;;-3.12;100.00;100442.97;4882136;29;20082;-95
2023/01/20 00:48:21;;;;;;;5.70;2.53;;;;;;;-3.13;100.00;100458.94;4912457;29;20025;-96
2023/01/20 00:50:47;;;;;;;5.95;2.63;;;;;;;-3.40;100.00;100421.09;4881232;29;20084;-95
2023/01/20 00:53:13;;;;;;;9.13;2.55;;;;;;;-3.47;100.00;100421.09;4880890;29;20028;-94
2023/01/20 00:55:38;;;;;;;6.50;2.60;;;;;;;-3.19;100.00;100448.84;4881131;29;20041;-94
2023/01/20 00:58:04;;;;;;;8.95;2.72;;;;;;;-3.21;100.00;100425.28;4880751;29;20025;-94
2023/01/20 01:00:30;;;;;;;7.43;2.45;;;;;;;-2.83;100.00;100474.88;4880959;29;20113;-95
2023/01/20 01:02:56;;;;;;;6.63;2.42;;;;;;;-2.74;100.00;100466.44;4881778;29;20045;-96
2023/01/20 01:05:22;;;;;;;8.75;3.08;;;;;;;-2.81;100.00;100437.81;4881532;29;20025;-96
2023/01/20 01:07:48;;;;;;;11.68;3.00;;;;;;;-2.75;100.00;100475.72;4881746;29;20029;-96
2023/01/20 01:10:13;;;;;;;4.68;2.55;;;;;;;-2.81;100.00;100458.88;4882195;29;20396;-96
2023/01/20 01:12:39;;;;;;;11.80;1.95;;;;;;;-2.81;100.00;100484.13;4881921;29;20095;-94
2023/01/20 01:15:05;;;;;;;8.10;2.38;;;;;;;-2.93;100.00;100460.59;4912907;29;20033;-96
2023/01/20 01:17:37;;;;;;;9.52;2.92;;;;;;;-3.03;100.00;100458.06;4882097;29;20025;-96
2023/01/20 01:20:03;;;;;;;8.63;2.35;;;;;;;-3.00;100.00;100462.28;4881578;29;20088;-96
2023/01/20 01:22:31;;;;;;;8.57;2.20;;;;;;;-2.92;100.00;100465.63;4881066;29;20124;-96
2023/01/20 01:24:57;;;;;;;14.10;2.90;;;;;;;-2.64;100.00;100476.50;4881180;29;20032;-95
2023/01/20 01:27:22;;;;;;;11.23;2.35;;;;;;;-2.50;100.00;100478.16;4881586;29;20029;-96
2023/01/20 01:29:51;;;;;;;7.20;2.35;;;;;;;-2.23;100.00;100521.03;4881557;29;20033;-96
2023/01/20 01:32:17;;;;;;;11.20;2.50;;;;;;;-2.43;100.00;100477.28;4882089;29;20029;-96
2023/01/20 01:34:43;;;;;;;11.77;2.72;;;;;;;-2.20;100.00;100478.03;4882189;29;20040;-96
2023/01/20 01:37:08;;;;;;;6.60;2.28;;;;;;;-1.97;100.00;100482.16;4881776;29;20432;-96
2023/01/20 01:39:34;;;;;;;10.80;2.90;;;;;;;-1.87;100.00;100506.53;4912780;29;20029;-96
2023/01/20 01:42:00;;;;;;;9.68;2.58;;;;;;;-1.73;100.00;100509.84;4881159;29;20047;-96
2023/01/20 01:44:27;;;;;;;11.05;2.47;;;;;;;-1.83;100.00;100487.09;4881658;29;20037;-96
2023/01/20 01:46:52;;;;;;;9.90;2.88;;;;;;;-1.83;100.00;100477.84;4912691;29;20041;-96
2023/01/20 01:49:23;;;;;;;7.95;2.78;;;;;;;-1.59;100.00;100514.78;4881441;29;20039;-96
2023/01/20 01:52:02;;;;;;;5.18;1.98;;;;;;;-1.67;100.00;100492.94;4880767;29;20387;-96
2023/01/20 01:54:33;;;;;;;11.80;2.15;;;;;;;-1.43;100.00;100535.78;4912067;29;20085;-96
2023/01/20 01:56:59;;;;;;;4.25;2.72;;;;;;;-1.62;100.00;100517.34;4881298;29;20021;-95
2023/01/20 01:59:25;;;;;;;8.00;2.30;;;;;;;-1.42;100.00;100534.94;4880924;29;20025;-95
2023/01/20 02:01:52;;;;;;;5.40;2.05;;;;;;;-1.41;100.00;100536.63;4880977;29;20029;-96
2023/01/20 02:04:25;;;;;;;9.10;2.33;;;;;;;-1.46;100.00;100510.50;4880849;29;20036;-95
2023/01/20 02:06:55;;;;;;;4.05;2.05;;;;;;;-1.59;100.00;100516.50;4880502;29;20021;-95
2023/01/20 02:09:22;;;;;;;9.65;2.78;;;;;;;-1.66;100.00;100504.72;4880404;29;20035;-96
2023/01/20 02:11:56;;;;;;;10.25;1.90;;;;;;;-1.41;100.00;100529.03;4912535;29;20040;-96
2023/01/20 02:14:29;;;;;;;5.32;1.75;;;;;;;-1.46;100.00;100529.91;4881180;29;20022;-96
2023/01/20 02:17:14;;;;;;;4.22;2.08;;;;;;;-1.59;100.00;100512.25;4881178;29;20029;-95
2023/01/20 02:19:51;;;;;;;9.98;2.08;;;;;;;-1.35;100.00;100556.81;4911137;29;20041;-96
2023/01/20 02:22:33;;;;;;;9.52;3.45;;;;;;;-1.28;100.00;100550.03;4912265;29;20037;-96
2023/01/20 02:25:31;;;;;;;17.63;4.38;;;;;;;-1.52;100.00;100515.59;4912173;29;20025;-96
2023/01/20 02:28:48;;;;;;;8.27;1.98;;;;;;;-1.20;100.00;100539.84;4911225;29;20101;-96
2023/01/20 02:31:31;;;;;;;5.57;2.35;;;;;;;-1.14;100.00;100522.09;4859281;29;20037;-95
2023/01/20 02:34:10;;;;;;;6.10;1.95;;;;;;;-1.32;100.00;100526.44;4911894;29;20036;-96
2023/01/20 02:36:54;;;;;;;5.85;1.75;;;;;;;-1.27;100.00;100501.06;4911909;29;20033;-96
2023/01/20 02:39:49;;;;;;;7.57;1.95;;;;;;;-1.01;100.00;100546.44;4880251;29;20035;-96
2023/01/20 02:42:24;;;;;;;9.48;2.03;;;;;;;-1.13;100.00;100546.53;4880886;29;20077;-96
2023/01/20 02:45:01;;;;;;;18.15;2.05;;;;;;;-1.18;100.00;100543.22;4880390;29;20040;-96
2023/01/20 02:47:56;;;;;;;3.78;1.40;;;;;;;-1.08;100.00;100554.94;4880853;29;20025;-96
2023/01/20 02:50:27;;;;;;;7.60;1.50;;;;;;;-1.28;100.00;100511.22;4880243;29;20499;-96
2023/01/20 02:52:57;;;;;;;5.93;1.27;;;;;;;-1.30;100.00;100539.91;4879821;29;20033;-96
2023/01/20 02:55:46;;;;;;;8.73;2.60;;;;;;;-1.40;100.00;100532.41;4880478;29;20056;-96
2023/01/20 02:58:33;;;;;;;5.82;1.40;;;;;;;-1.62;100.00;100531.69;4879869;29;20040;-96
2023/01/20 03:01:09;;;;;;;4.93;1.50;;;;;;;-1.70;100.00;100543.56;4880484;29;20033;-96
2023/01/20 03:03:38;;;;;;;5.13;1.35;;;;;;;-1.75;100.00;100548.66;4879783;29;20029;-96
2023/01/20 03:06:09;;;;;;;4.50;1.33;;;;;;;-1.69;100.00;100566.31;4880481;29;20040;-96
2023/01/20 03:08:37;;;;;;;8.63;1.27;;;;;;;-1.88;100.00;100539.41;4880394;29;20025;-96
2023/01/20 03:11:06;;;;;;;4.45;1.40;;;;;;;-1.93;100.00;100536.91;4879947;29;20039;-96
2023/01/20 03:13:45;;;;;;;7.38;1.35;;;;;;;-1.70;100.00;100573.94;4879921;29;20029;-95
2023/01/20 03:16:17;;;;;;;12.38;1.58;;;;;;;-1.97;100.00;100537.78;4910872;29;20132;-96
2023/01/20 03:18:43;;;;;;;4.45;1.58;;;;;;;-1.67;100.00;100581.50;4880054;29;20029;-95
2023/01/20 03:21:11;;;;;;;10.13;1.92;;;;;;;-1.96;100.00;100531.88;4879585;29;20025;-96
2023/01/20 03:23:44;;;;;;;5.55;1.73;;;;;;;-1.92;100.00;100537.78;4880192;29;20459;-96
2023/01/20 03:26:12;;;;;;;9.43;1.40;;;;;;;-2.06;100.00;100537.81;4880398;29;20029;-96
2023/01/20 03:28:40;;;;;;;10.15;1.58;;;;;;;-1.97;100.00;100547.91;4879586;29;20041;-96
2023/01/20 03:31:47;;;;;;;9.75;1.23;;;;;;;-1.64;100.00;100584.00;4880056;29;20036;-96
2023/01/20 03:34:17;;;;;;;10.45;1.98;;;;;;;-1.70;100.00;100553.69;4877736;29;20504;-96
2023/01/20 03:36:44;;;;;;;8.38;2.10;;;;;;;-1.49;100.00;100580.56;4879901;29;20093;-96
2023/01/20 03:39:13;;;;;;;4.68;1.77;;;;;;;-1.76;100.00;100550.31;4879534;29;20085;-96
2023/01/20 03:41:50;;;;;;;7.85;1.83;;;;;;;-1.43;100.00;100596.56;4879874;29;20382;-96
2023/01/20 03:44:32;;;;;;;9.90;2.05;;;;;;;-1.37;100.00;100601.56;4911651;29;20120;-96
2023/01/20 03:47:11;;;;;;;9.48;2.40;;;;;;;-1.54;100.00;100557.78;4911203;29;20029;-96
2023/01/20 03:49:50;;;;;;;5.85;2.45;;;;;;;-1.56;100.00;100559.47;4880268;29;20097;-96
2023/01/20 03:52:22;;;;;;;10.70;2.72;;;;;;;-1.30;100.00;100603.22;4880039;29;20425;-96
2023/01/20 03:54:51;;;;;;;;;;;;;;;-1.22;100.00;100599.78;4911228;29;20421;-96
2023/01/20 03:57:22;;;;;;;7.50;2.50;;;;;;;-1.46;100.00;100583.91;4883274;29;19923;-96
2023/01/20 03:59:50;;;;;;;7.30;2.67;;;;;;;-1.56;100.00;100565.41;4883814;29;20037;-96
2023/01/20 04:02:16;;;;;;;10.15;2.78;;;;;;;-1.35;100.00;100597.34;4884216;29;20066;-96
2023/01/20 04:04:44;;;;;;;7.50;2.75;;;;;;;-1.38;100.00;100596.53;4883663;29;20033;-96
2023/01/20 04:07:16;;;;;;;8.05;2.35;;;;;;;-1.44;100.00;100572.09;4883629;29;20100;-96
2023/01/20 04:09:46;;;;;;;5.43;2.75;;;;;;;-1.40;100.00;100568.69;4883609;29;20056;-96
2023/01/20 04:12:13;;;;;;;10.05;2.75;;;;;;;-1.36;100.00;100590.59;4883174;29;20119;-96
2023/01/20 04:14:38;;;;;;;11.98;2.55;;;;;;;-1.43;100.00;100573.78;4865229;29;20556;-96
2023/01/20 04:17:06;;;;;;;16.85;2.95;;;;;;;-1.53;100.00;100584.81;4864056;29;20033;-96
2023/01/20 04:19:31;;;;;;;16.38;2.83;;;;;;;-1.49;100.00;100588.16;4864632;29;20046;-95
2023/01/20 04:22:23;;;;;;;8.30;2.70;;;;;;;-1.39;100.00;100627.75;4865266;29;20026;-96
2023/01/20 04:25:06;;;;;;;8.60;2.42;;;;;;;-1.58;100.00;100584.81;4864593;29;20049;-96
2023/01/20 04:27:32;;;;;;;7.10;2.28;;;;;;;-1.64;100.00;100589.06;4864506;29;20037;-96
2023/01/20 04:29:57;;;;;;;7.80;1.73;;;;;;;-1.50;100.00;100602.50;4865229;29;20124;-95
2023/01/20 04:32:23;;;;;;;3.45;2.00;;;;;;;-1.48;100.00;100594.91;4864937;29;20036;-95
2023/01/20 04:34:52;;;;;;;8.02;2.35;;;;;;;-1.47;100.00;100622.72;4864461;29;20018;-95
2023/01/20 04:37:18;;;;;;;12.75;2.58;;;;;;;-1.47;100.00;100596.56;4864601;29;20481;-95
2023/01/20 04:39:43;;;;;;;9.35;2.30;;;;;;;-1.44;100.00;100596.56;4864710;29;20037;-95
2023/01/20 04:42:10;;;;;;;12.27;2.05;;;;;;;-1.53;100.00;100600.00;4863338;29;20445;-95
2023/01/20 04:44:35;;;;;;;7.60;1.88;;;;;;;-1.35;100.00;100615.06;4863083;29;20037;-94
2023/01/20 04:47:01;;;;;;;12.27;2.13;;;;;;;-1.36;100.00;100615.91;4862819;29;20594;-94
2023/01/20 04:49:27;;;;;;;11.63;2.22;;;;;;;-1.36;100.00;100599.91;4863847;29;20029;-96
2023/01/20 04:51:52;;;;;;;4.57;1.98;;;;;;;-1.24;100.00;100612.47;4863327;29;20087;-95
2023/01/20 04:54:18;;;;;;;8.88;2.45;;;;;;;-1.44;100.00;100597.41;4863126;29;20025;-95
2023/01/20 04:56:49;;;;;;;8.82;2.00;;;;;;;-1.28;100.00;100623.47;4863444;29;20539;-96
2023/01/20 04:59:15;;;;;;;5.93;2.30;;;;;;;-1.18;100.00;100626.78;4864017;29;20037;-95
2023/01/20 05:01:43;;;;;;;10.80;2.67;;;;;;;-1.28;100.00;100638.66;4866743;29;20120;-96
2023/01/20 05:04:08;;;;;;;6.68;1.95;;;;;;;-1.50;100.00;100617.69;4863194;29;20033;-95
2023/01/20 05:06:34;;;;;;;10.18;1.73;;;;;;;-1.36;100.00;100633.66;4863789;29;20121;-94
2023/01/20 05:09:00;;;;;;;8.88;2.03;;;;;;;-1.38;100.00;100637.88;4863419;29;20086;-95
2023/01/20 05:11:25;;;;;;;7.70;1.85;;;;;;;-1.31;100.00;100649.66;4864486;29;20475;-96
2023/01/20 05:13:51;;;;;;;6.30;1.88;;;;;;;-1.56;100.00;100627.81;4863727;29;20039;-95
2023/01/20 05:16:22;;;;;;;4.13;1.88;;;;;;;-1.49;100.00;100621.88;4863573;29;20032;-96
2023/01/20 05:18:49;;;;;;;8.45;2.35;;;;;;;-1.45;100.00;100621.03;4863171;29;20026;-95
2023/01/20 05:21:14;;;;;;;9.05;4.72;;;;;;;-1.45;100.00;100632.84;4862996;29;20044;-96
2023/01/20 05:23:40;;;;;;;5.72;1.42;;;;;;;-1.49;100.00;100629.47;4862777;29;20030;-95
2023/01/20 05:26:13;;;;;;;8.57;2.25;;;;;;;-1.59;100.00;100628.69;4863428;29;20033;-96
2023/01/20 05:28:38;;;;;;;7.95;2.15;;;;;;;-1.39;100.00;100666.59;4863989;29;20492;-96
2023/01/20 05:31:04;;;;;;;5.57;1.80;;;;;;;-1.57;100.00;100632.06;4879618;29;20033;-96
2023/01/20 05:33:33;;;;;;;5.85;1.75;;;;;;;-1.51;100.00;100637.09;4863749;29;20033;-96
2023/01/20 05:35:58;;;;;;;5.15;1.70;;;;;;;-1.59;100.00;100633.75;4862915;29;20033;-94
2023/01/20 05:38:24;;;;;;;5.90;1.70;;;;;;;-1.51;100.00;100667.47;4862158;29;20025;-96
2023/01/20 05:40:49;;;;;;;6.65;1.88;;;;;;;-1.60;100.00;100666.66;4862294;29;20037;-96
2023/01/20 05:43:15;;;;;;;11.48;3.25;;;;;;;-1.55;100.00;100680.16;4862202;29;20041;-95
2023/01/20 05:45:50;;;;;;;6.03;1.27;;;;;;;-1.77;100.00;100639.72;4862733;29;20395;-96
2023/01/20 05:48:15;;;;;;;7.35;1.50;;;;;;;-1.82;100.00;100641.44;4862890;29;20022;-96
2023/01/20 05:50:41;;;;;;;7.13;2.10;;;;;;;-1.81;100.00;100645.63;4862689;29;20066;-96
2023/01/20 05:53:07;;;;;;;8.20;1.83;;;;;;;-1.83;100.00;100637.25;4863128;29;20033;-96
2023/01/20 05:55:33;;;;;;;6.65;1.73;;;;;;;-1.85;100.00;100631.34;4863194;29;20518;-96
2023/01/20 05:58:03;;;;;;;7.18;2.33;;;;;;;-1.60;100.00;100652.31;4863380;29;20033;-96
2023/01/20 06:00:32;;;;;;;3.28;1.05;;;;;;;-1.61;100.00;100682.69;4862729;29;20037;-95
2023/01/20 06:02:58;;;;;;;10.70;1.58;;;;;;;-1.72;100.00;100665.03;4863189;29;20029;-95
2023/01/20 06:05:24;;;;;;;4.57;1.83;;;;;;;-1.63;100.00;100676.81;4863647;29;20053;-96
2023/01/20 06:07:49;;;;;;;7.55;1.48;;;;;;;-1.79;100.00;100658.28;4862940;29;20400;-96
2023/01/20 06:10:16;;;;;;;7.40;1.92;;;;;;;-1.70;100.00;100667.56;4863556;29;20029;-96
2023/01/20 06:12:42;;;;;;;7.55;1.77;;;;;;;-1.86;100.00;100674.34;4863404;29;20040;-95
2023/01/20 06:15:08;;;;;;;6.03;1.48;;;;;;;-1.82;100.00;100676.84;4863313;29;20030;-96
2023/01/20 06:17:34;;;;;;;9.00;2.00;;;;;;;-1.88;100.00;100669.28;4862701;29;20021;-96
2023/01/20 06:20:00;;;;;;;8.07;2.50;;;;;;;-1.85;100.00;100681.94;4863944;29;20078;-96
2023/01/20 06:22:26;;;;;;;8.98;2.17;;;;;;;-1.97;100.00;100687.03;4863204;29;20026;-96
2023/01/20 06:24:54;;;;;;;3.35;1.70;;;;;;;-1.98;100.00;100696.28;4863181;29;20036;-96
2023/01/20 06:27:20;;;;;;;8.30;2.65;;;;;;;-1.92;100.00;100689.53;4863115;29;20060;-95
2023/01/20 06:29:46;;;;;;;10.65;2.05;;;;;;;-1.91;100.00;100701.34;4862648;29;20038;-96
2023/01/20 06:32:12;;;;;;;4.45;2.00;;;;;;;-1.87;100.00;100683.63;4862876;29;20040;-95
2023/01/20 06:34:38;;;;;;;9.88;1.77;;;;;;;-2.02;100.00;100673.56;4863846;29;20040;-96
2023/01/20 06:37:03;;;;;;;4.10;1.50;;;;;;;-2.10;100.00;100685.34;4863555;29;20062;-96
2023/01/20 06:39:29;;;;;;;3.15;1.70;;;;;;;-2.23;100.00;100680.31;4863671;29;20025;-96
2023/01/20 06:41:59;;;;;;;6.63;1.77;;;;;;;-2.19;100.00;100686.22;4864249;29;20029;-96
2023/01/20 06:44:25;;;;;;;9.65;2.53;;;;;;;-2.04;100.00;100715.69;4863413;29;20037;-96
2023/01/20 06:46:51;;;;;;;5.28;2.47;;;;;;;-2.24;100.00;100725.84;4862506;29;20112;-96
2023/01/20 06:49:17;;;;;;;3.40;1.40;;;;;;;-2.48;100.00;100712.34;4862900;29;20064;-96
2023/01/20 06:51:43;;;;;;;8.88;2.00;;;;;;;-2.71;100.00;100701.38;4863141;29;20146;-96
2023/01/20 06:54:08;;;;;;;4.97;1.58;;;;;;;-2.85;100.00;100708.94;4863138;29;20026;-96
2023/01/20 06:56:34;;;;;;;6.38;1.65;;;;;;;-2.99;100.00;100700.50;4862730;29;20121;-96
2023/01/20 06:59:00;;;;;;;5.95;1.83;;;;;;;-2.95;100.00;100740.91;4861120;29;20040;-96
2023/01/20 07:01:28;;;;;;;11.75;2.67;;;;;;;-3.18;100.00;100715.56;4860824;29;20126;-96
2023/01/20 07:03:54;;;;;;;9.50;2.33;;;;;;;-3.12;100.00;100730.75;4861185;29;20037;-95
2023/01/20 07:06:30;;;;;;;7.75;1.65;;;;;;;-3.14;100.00;100737.47;4861710;29;20033;-95
2023/01/20 07:08:57;;;;;;;5.43;1.55;;;;;;;-3.26;100.00;100712.19;4861916;29;20377;-96
2023/01/20 07:11:23;;;;;;;4.97;1.80;;;;;;;-3.35;100.00;100717.19;4862093;29;20026;-96
2023/01/20 07:13:49;;;;;;;3.65;1.73;;;;;;;-3.40;100.00;100718.88;4862943;29;20065;-96
2023/01/20 07:16:15;;;;;;;6.13;1.80;;;;;;;-3.38;100.00;100738.22;4862276;29;20062;-96
2023/01/20 07:18:41;;;;;;;5.13;1.58;;;;;;;-3.55;100.00;100730.56;4862108;29;20025;-96
2023/01/20 07:21:10;;;;;;;6.05;2.05;;;;;;;-3.68;100.00;100717.06;4862717;29;20030;-96
2023/01/20 07:23:35;;;;;;;6.57;1.83;;;;;;;-3.82;100.00;100733.78;4862415;29;20025;-96
2023/01/20 07:26:05;;;;;;;4.95;2.15;;;;;;;-3.75;100.00;100738.03;4862356;29;20029;-96
2023/01/20 07:28:33;;;;;;;8.77;2.33;;;;;;;-3.81;100.00;100742.19;4861957;29;20392;-95
2023/01/20 07:31:07;;;;;;;5.22;1.80;;;;;;;-3.79;100.00;100748.09;4861558;29;20029;-96
2023/01/20 07:33:33;;;;;;;12.18;2.20;;;;;;;-3.71;100.00;100757.38;4862576;29;20085;-96
2023/01/20 07:36:00;;;;;;;6.45;1.75;;;;;;;-3.52;100.00;100776.00;4862230;29;20029;-96
2023/01/20 07:38:26;;;;;;;5.25;1.98;;;;;;;-3.84;100.00;100759.84;4862247;29;20037;-95
2023/01/20 07:40:55;;;;;;;5.07;1.67;;;;;;;-3.88;100.00;100751.38;4862641;29;20037;-96
2023/01/20 07:43:21;;;;;;;4.78;1.80;;;;;;;-3.75;100.00;100757.38;4862467;29;20047;-96
2023/01/20 07:45:49;;;;;;;13.63;3.22;;;;;;;-3.40;100.00;100751.66;4863032;29;20463;-96
2023/01/20 07:48:15;;;;;;;7.72;2.10;;;;;;;-3.31;100.00;100779.47;4863316;29;20022;-95
2023/01/20 07:50:40;;;;;;;8.23;1.80;;;;;;;-3.43;100.00;100769.34;4863735;29;20045;-96
2023/01/20 07:53:06;;;;;;;6.18;2.22;;;;;;;-3.40;100.00;100774.38;4880139;29;20026;-95
2023/01/20 07:55:32;;;;;;;4.95;1.63;;;;;;;-3.30;100.00;100771.91;4864040;29;20033;-96
2023/01/20 07:57:58;;;;;;;6.55;2.28;;;;;;;-3.29;100.00;100772.75;4863850;29;20026;-95
2023/01/20 08:00:24;;;;;;;14.32;1.73;;;;;;;-3.29;100.00;100772.75;4864066;29;20073;-96
2023/01/20 08:02:50;;;;;;;6.25;1.70;;;;;;;-3.24;100.00;100802.22;4862686;29;20034;-95
2023/01/20 08:05:15;;;;;;;3.55;1.80;;;;;;;-3.29;100.00;100787.88;4862357;29;20032;-96
2023/01/20 08:07:41;;;;;;;7.75;1.42;;;;;;;-3.29;100.00;100787.88;4862718;29;20030;-94
2023/01/20 08:10:07;;;;;;;7.00;3.53;;;;;;;-3.28;100.00;100790.41;4862737;29;20030;-96
2023/01/20 08:12:33;;;;;;;8.68;2.40;;;;;;;-3.16;100.00;100809.00;4862962;29;20026;-96
2023/01/20 08:14:58;;;;;;;8.38;1.90;;;;;;;-3.15;100.00;100798.06;4862958;29;20030;-96
2023/01/20 08:17:24;;;;;;;5.55;1.75;;;;;;;-2.83;100.00;100824.28;4863685;29;20026;-96
2023/01/20 08:19:50;;;;;;;10.98;1.70;;;;;;;-2.85;100.00;100804.94;4864418;29;20064;-96
2023/01/20 08:22:15;;;;;;;4.75;1.50;;;;;;;-2.69;100.00;100806.63;4864012;29;20462;-96
2023/01/20 08:24:41;;;;;;;11.73;1.70;;;;;;;-2.52;100.00;100818.47;4864315;29;20094;-96
2023/01/20 08:27:07;;;;;;;9.52;1.80;;;;;;;-2.41;100.00;100832.00;4863601;29;20048;-96
2023/01/20 08:29:32;;;;;;;4.53;1.45;;;;;;;-2.33;100.00;100830.31;4864657;29;20118;-96
2023/01/20 08:31:59;;;;;;;3.50;1.50;;;;;;;-2.43;100.00;100814.28;4864008;29;20036;-96
2023/01/20 08:34:26;;;;;;;5.30;1.60;;;;;;;-2.43;100.00;100819.34;4863572;29;20151;-96
2023/01/20 08:36:52;;;;;;;5.93;1.48;;;;;;;-2.25;100.00;100843.78;4863600;29;20040;-94
2023/01/20 08:39:19;;;;;;;5.57;1.45;;;;;;;-2.16;100.00;100828.66;4863097;29;20034;-94
2023/01/20 08:41:46;;;;;;;8.10;1.67;;;;;;;-2.22;100.00;100818.53;4864969;29;20033;-94
2023/01/20 08:44:13;;;;;;;6.95;2.10;;;;;;;-2.14;100.00;100843.00;4867155;29;20101;-96
2023/01/20 08:46:39;;;;;;;6.53;1.63;;;;;;;-2.25;100.00;100833.69;4866439;29;20040;-96
2023/01/20 08:49:10;;;;;;;8.15;2.22;;;;;;;-1.84;100.00;100887.69;4868368;29;20029;-96
2023/01/20 08:51:39;;;;;;;4.47;1.70;;;;;;;-2.00;100.00;100843.81;4867325;29;20041;-96
2023/01/20 08:54:05;;;;;;;5.60;1.95;;;;;;;-1.73;100.00;100843.84;4866884;29;20026;-96
2023/01/20 08:56:30;;;;;;;9.45;2.45;;;;;;;-1.33;100.00;100841.25;4866334;29;20025;-96
2023/01/20 08:58:59;;;;;;;5.82;1.67;;;;;;;-1.11;100.00;100824.31;4864846;29;20025;-96
2023/01/20 09:01:27;;;;;;;5.97;1.80;;;;;;;-0.79;100.00;100852.91;4864483;29;20033;-96
2023/01/20 09:03:53;;;;;;;8.30;2.78;;;;;;;-0.83;100.00;100843.63;4864214;29;20491;-96
2023/01/20 09:06:20;;;;;;;8.63;1.58;;;;;;;-0.46;100.00;100867.97;4864913;29;20181;-95
2023/01/20 09:08:47;;;;;;;5.13;1.30;;;;;;;-0.11;100.00;100850.84;4865584;29;20029;-96
2023/01/20 09:11:16;;;;;;;15.65;1.60;;;;;;;0.08;100.00;100861.72;4865336;29;20049;-96
2023/01/20 09:13:44;;;;;;;4.22;1.20;;;;;;;-0.11;100.00;100853.38;4866698;29;20040;-96
2023/01/20 09:16:13;;;;;;;6.32;1.42;;;;;;;-0.07;100.00;100850.81;4864465;29;20026;-96
2023/01/20 09:18:39;;;;;;;5.75;1.67;;;;;;;0.09;100.00;100884.53;4881406;29;20026;-95
2023/01/20 09:21:07;;;;;;;3.42;1.30;;;;;;;-0.07;100.00;100860.97;4865585;29;20036;-96
2023/01/20 09:23:41;;;;;;;7.57;1.25;;;;;;;-0.09;100.00;100855.06;4867745;29;20041;-96
2023/01/20 09:26:10;;;;;;;4.55;1.17;;;;;;;-0.01;100.00;100873.59;4865875;29;20034;-96
2023/01/20 09:28:36;;;;;;;11.35;1.20;;;;;;;-0.08;100.00;100871.94;4864653;29;20485;-95
2023/01/20 09:31:06;;;;;;;5.85;1.70;;;;;;;-0.14;100.00;100861.84;4864863;29;20025;-95
2023/01/20 09:33:34;;;;;;;7.10;1.60;;;;;;;-0.11;100.00;100861.81;4866636;29;20041;-95
2023/01/20 09:36:01;;;;;;;2.92;1.40;;;;;;;-0.07;100.00;100865.22;4865971;29;20494;-96
2023/01/20 09:44:32;;;;;;;14.68;2.05;;;;;;;0.50;100.00;100915.53;4867547;29;20125;-95
2023/01/20 09:47:22;;;;;;;9.23;1.75;;;;;;;0.51;100.00;100901.97;4866075;29;20033;-94
2023/01/20 09:53:24;;;;;;;4.47;1.70;;;;;;;0.45;100.00;100871.56;4866064;29;20044;-96
2023/01/20 09:55:50;;;;;;;10.45;3.72;;;;;;;0.77;100.00;100920.38;4865973;29;20022;-96
2023/01/20 09:58:34;;;;;;;3.22;1.30;;;;;;;0.87;100.00;100925.38;4865591;29;20514;-95
2023/01/20 10:01:11;;;;;;;5.45;1.45;;;;;;;0.77;100.00;100884.78;4864850;29;20501;-96
2023/01/20 10:03:41;;;;;;;5.72;1.45;;;;;;;1.12;100.00;100936.94;4879990;29;20025;-95
2023/01/20 10:06:17;;;;;;;13.20;2.95;;;;;;;1.22;100.00;100915.69;4863332;29;20033;-95
2023/01/20 10:09:05;;;;;;;8.68;1.80;;;;;;;1.41;98.09;100912.91;4862490;29;20029;-94
2023/01/20 10:11:39;;;;;;;5.97;1.63;;;;;;;1.77;95.23;100906.50;4862212;29;20033;-96
2023/01/20 10:14:24;;;;;;;8.50;1.98;;;;;;;2.76;90.18;100941.50;4861858;29;20029;-94
2023/01/20 10:16:56;;;;;;;4.63;1.65;;;;;;;2.75;86.51;100907.50;4861106;29;20026;-95
2023/01/20 10:19:35;;;;;;;8.05;1.77;;;;;;;2.84;88.90;100938.81;4861041;29;20185;-95
2023/01/20 10:22:20;;;;;;;8.40;1.63;;;;;;;3.14;87.53;100920.41;4860899;29;20124;-96
2023/01/20 10:24:58;;;;;;;10.65;1.98;;;;;;;4.38;78.66;100931.41;4860931;29;20062;-95
2023/01/20 10:27:27;;;;;;;5.72;1.60;;;;;;;5.04;73.23;100938.22;4860365;29;20033;-96
2023/01/20 10:30:02;;;;;;;9.00;1.80;;;;;;;6.16;68.10;100941.91;4860559;29;20029;-94
2023/01/20 10:32:44;;;;;;;10.27;1.98;;;;;;;5.82;68.58;100922.41;4860530;29;20072;-94
2023/01/20 10:35:14;;;;;;;6.57;1.92;;;;;;;6.04;70.83;100953.38;4860696;29;20029;-95
2023/01/20 10:37:40;;;;;;;7.30;2.10;;;;;;;6.51;66.23;100943.38;4860444;29;20029;-94
2023/01/20 10:40:27;;;;;;;5.20;1.63;;;;;;;6.31;65.87;100963.66;4860138;29;20025;-94
2023/01/20 10:42:57;;;;;;;7.15;2.28;;;;;;;6.67;64.79;100948.81;4860459;29;20488;-96
2023/01/20 10:45:44;;;;;;;12.35;2.17;;;;;;;6.85;64.23;100962.75;4860430;29;20033;-95
2023/01/20 10:48:41;;;;;;;8.65;2.22;;;;;;;7.55;61.00;100953.47;4860122;29;20033;-95
2023/01/20 10:51:22;;;;;;;6.30;2.40;;;;;;;7.49;61.84;100964.81;4860241;29;20090;-95
2023/01/20 10:53:57;;;;;;;10.18;2.15;;;;;;;7.69;61.29;100970.06;4860332;29;20097;-95
2023/01/20 10:56:37;;;;;;;9.60;2.08;;;;;;;9.18;55.14;100963.31;4859802;29;20033;-94
2023/01/20 10:59:12;;;;;;;6.47;1.83;;;;;;;10.42;52.35;100960.22;4860094;29;20480;-95
2023/01/20 11:01:38;;;;;;;5.65;1.58;;;;;;;12.03;46.45;100973.53;4859920;29;20033;-95
2023/01/20 11:04:04;;;;;;;8.45;1.75;;;;;;;11.49;48.34;100958.31;4859487;29;20025;-93
2023/01/20 11:06:30;;;;;;;7.22;1.83;;;;;;;11.64;47.25;100933.38;4859953;29;20124;-94
2023/01/20 11:08:55;;;;;;;5.47;1.45;;;;;;;10.88;49.35;100957.13;4859777;29;20030;-95
2023/01/20 11:11:23;;;;;;;11.05;2.17;;;;;;;11.06;48.65;100951.00;4860176;29;20113;-96
2023/01/20 11:13:51;;;;;;;7.97;1.95;;;;;;;11.72;47.43;100960.47;4859787;29;20130;-94
2023/01/20 11:16:29;;;;;;;13.13;2.03;;;;;;;11.31;49.14;100975.59;4859971;29;20026;-93
2023/01/20 11:18:58;;;;;;;3.53;1.98;;;;;;;12.09;46.77;100937.78;4859835;29;20116;-94
2023/01/20 11:21:27;;;;;;;6.15;2.05;;;;;;;12.54;45.34;100943.06;4859971;29;20044;-95
2023/01/20 11:23:55;;;;;;;3.30;1.35;;;;;;;13.42;44.66;100968.06;4859980;29;20029;-96
2023/01/20 11:26:32;;;;;;;6.68;1.55;;;;;;;14.93;41.47;100969.72;4859735;29;20021;-96
2023/01/20 11:29:08;;;;;;;5.00;1.60;;;;;;;15.74;38.31;100959.88;4859847;29;20061;-96
2023/01/20 11:31:41;;;;;;;7.35;1.70;;;;;;;15.48;38.39;100946.03;4860020;29;20403;-96
2023/01/20 11:34:24;;;;;;;9.15;2.90;;;;;;;15.55;38.38;100975.91;4859760;29;20026;-95
2023/01/20 11:37:09;;;;;;;4.70;1.60;;;;;;;15.07;39.91;100953.19;4859820;29;20068;-95
2023/01/20 11:39:42;;;;;;;6.70;1.63;;;;;;;15.67;38.03;100949.03;4859778;29;20025;-96